Time;durP1;ratioP1;P1;durP2;ratioP2;P2;SDS_P1;SDS_P2;PMS_P1;PMS_P2;Temp;Humidity;BMP_temperature;BMP_pressure;BME280_temperature;BME280_humidity;BME280_pressure;Samples;Min_cycle;Max_cycle;Signal;HPM_P1;HPM_P2
2021/06/18 00:02:16;;;;;;;9.40;6.20;;;;;;;24.45;58.72;100534.94;5123528;27;20027;-50
2021/06/18 00:04:42;;;;;;;9.07;5.85;;;;;;;24.60;58.07;100542.91;5123741;27;20111;-49
2021/06/18 00:07:10;;;;;;;8.70;6.40;;;;;;;24.69;57.44;100539.66;5125529;27;20048;-50
2021/06/18 00:09:36;;;;;;;11.40;6.20;;;;;;;24.70;58.21;100540.50;5106811;27;20486;-49
2021/06/18 00:12:04;;;;;;;10.77;6.10;;;;;;;24.78;58.21;100544.41;5109151;27;20207;-49
2021/06/18 00:14:30;;;;;;;10.13;6.78;;;;;;;24.69;57.07;100545.00;5125287;27;20391;-53
2021/06/18 00:16:55;;;;;;;12.40;5.90;;;;;;;24.59;57.77;100543.84;5125496;27;20046;-50
2021/06/18 00:19:21;;;;;;;9.07;6.07;;;;;;;24.43;58.16;100549.38;5129623;27;20031;-49
2021/06/18 00:21:47;;;;;;;10.48;6.60;;;;;;;24.36;59.20;100546.22;5123336;27;20034;-48
2021/06/18 00:24:13;;;;;;;11.05;6.32;;;;;;;24.38;58.01;100540.78;5125213;27;20127;-50
2021/06/18 00:26:39;;;;;;;9.68;7.03;;;;;;;24.12;59.68;100546.00;5127831;27;20042;-49
2021/06/18 00:29:05;;;;;;;8.00;5.30;;;;;;;24.42;59.11;100543.13;5127093;27;20028;-49
2021/06/18 00:31:31;;;;;;;9.50;5.93;;;;;;;24.45;57.76;100550.09;5123633;27;20388;-50
2021/06/18 00:33:57;;;;;;;12.10;6.25;;;;;;;24.67;58.37;100546.91;5126167;27;20130;-50
2021/06/18 00:36:22;;;;;;;9.05;6.43;;;;;;;24.40;59.19;100555.75;5124957;27;20027;-51
2021/06/18 00:38:48;;;;;;;8.10;6.38;;;;;;;24.22;60.00;100556.94;5106744;27;20042;-49
2021/06/18 00:41:14;;;;;;;9.50;6.90;;;;;;;24.29;59.26;100567.13;5125968;27;20057;-51
2021/06/18 00:43:40;;;;;;;8.55;6.35;;;;;;;24.41;58.29;100562.81;5124366;27;20088;-50
2021/06/18 00:46:05;;;;;;;8.93;6.85;;;;;;;24.07;60.21;100561.44;5123487;27;20043;-52
2021/06/18 00:48:32;;;;;;;10.40;7.07;;;;;;;24.03;60.80;100563.44;5126875;27;20039;-49
2021/06/18 00:50:59;;;;;;;8.95;7.25;;;;;;;23.85;61.22;100561.91;5127485;27;20035;-51
2021/06/18 00:53:26;;;;;;;12.60;7.32;;;;;;;23.84;61.59;100560.19;5123929;27;20099;-49
2021/06/18 00:55:51;;;;;;;9.30;7.25;;;;;;;23.84;61.76;100552.16;5124430;27;20091;-52
2021/06/18 00:58:17;;;;;;;9.90;6.78;;;;;;;23.96;61.68;100551.44;5131486;27;20047;-49
2021/06/18 01:00:44;;;;;;;10.00;6.40;;;;;;;23.95;60.48;100544.38;5123337;27;20042;-49
2021/06/18 01:03:10;;;;;;;9.98;7.15;;;;;;;24.05;61.08;100537.50;5103434;27;20705;-49
2021/06/18 01:05:36;;;;;;;8.88;6.78;;;;;;;24.08;60.10;100525.78;5126460;27;20260;-49
2021/06/18 01:08:11;;;;;;;10.48;6.70;;;;;;;23.95;60.71;100523.91;5129051;27;20038;-50
2021/06/18 01:11:08;;;;;;;8.55;6.80;;;;;;;24.03;61.16;100526.06;5124049;27;20039;-49
2021/06/18 01:13:38;;;;;;;9.52;7.00;;;;;;;24.01;60.29;100519.97;5108867;27;20035;-50
2021/06/18 01:16:26;;;;;;;10.27;6.70;;;;;;;23.85;61.70;100517.38;5128005;27;20151;-49
2021/06/18 01:19:00;;;;;;;10.43;6.72;;;;;;;23.71;62.15;100510.22;5127221;27;20019;-53
2021/06/18 01:21:31;;;;;;;8.55;6.22;;;;;;;23.76;62.10;100505.47;5123305;27;20509;-49
2021/06/18 01:24:29;;;;;;;7.97;5.90;;;;;;;23.66;62.44;100496.31;5142462;27;20483;-49
2021/06/18 01:27:17;;;;;;;10.15;7.38;;;;;;;23.60;62.53;100496.69;5147293;27;20066;-49
2021/06/18 01:30:06;;;;;;;9.90;6.90;;;;;;;23.69;62.35;100509.47;5124351;27;20403;-50
2021/06/18 01:32:37;;;;;;;10.82;6.55;;;;;;;23.78;61.91;100508.03;5133085;27;20026;-51
2021/06/18 01:35:05;;;;;;;10.68;6.97;;;;;;;23.88;60.34;100505.69;5140769;27;20212;-50
2021/06/18 01:37:32;;;;;;;8.07;7.10;;;;;;;23.92;60.25;100510.72;5139861;27;20039;-50
2021/06/18 01:40:01;;;;;;;9.40;7.13;;;;;;;23.83;62.15;100508.63;5144459;27;20045;-49
2021/06/18 01:42:29;;;;;;;10.07;8.65;;;;;;;23.63;62.51;100502.72;5142893;27;20057;-50
2021/06/18 01:44:56;;;;;;;;;;;;;;;23.88;61.57;100509.19;5147069;27;20261;-49
2021/06/18 01:47:22;;;;;;;9.48;7.65;;;;;;;23.77;62.25;100512.53;5145785;27;19930;-49
2021/06/18 01:49:49;;;;;;;12.25;7.25;;;;;;;23.71;61.74;100512.91;5143561;27;20037;-49
2021/06/18 01:52:17;;;;;;;9.57;8.40;;;;;;;23.77;62.98;100515.19;5144753;27;20125;-49
2021/06/18 01:54:44;;;;;;;10.80;7.50;;;;;;;23.68;61.97;100510.44;5127107;27;20118;-50
2021/06/18 01:57:13;;;;;;;10.38;8.07;;;;;;;23.72;63.13;100505.78;5148122;27;20050;-51
2021/06/18 01:59:40;;;;;;;10.38;7.40;;;;;;;23.73;61.93;100497.66;5143140;27;20069;-51
2021/06/18 02:02:08;;;;;;;11.43;8.02;;;;;;;23.70;62.42;100491.66;5111758;27;20046;-49
2021/06/18 02:04:37;;;;;;;11.18;7.70;;;;;;;23.59;63.94;100492.31;5143695;27;20034;-49
2021/06/18 02:07:04;;;;;;;10.48;8.35;;;;;;;23.51;63.59;100490.13;5140461;27;20066;-49
2021/06/18 02:09:33;;;;;;;11.35;8.48;;;;;;;23.59;63.65;100489.66;5124856;27;20027;-50
2021/06/18 02:11:59;;;;;;;10.77;7.78;;;;;;;23.45;63.30;100482.50;5144596;27;20598;-49
2021/06/18 02:14:28;;;;;;;8.98;6.90;;;;;;;23.49;62.13;100484.03;5141359;27;20246;-50
2021/06/18 02:17:01;;;;;;;10.63;8.20;;;;;;;23.59;63.54;100485.19;5139834;27;20066;-51
2021/06/18 02:19:29;;;;;;;9.93;8.43;;;;;;;23.63;61.66;100481.38;5148826;27;20027;-52
2021/06/18 02:21:56;;;;;;;9.13;7.80;;;;;;;23.69;62.10;100488.13;5146779;27;20072;-49
2021/06/18 02:24:24;;;;;;;9.85;7.80;;;;;;;23.57;62.97;100483.56;5143490;27;20626;-49
2021/06/18 02:26:52;;;;;;;12.18;7.90;;;;;;;23.46;63.58;100484.22;5124979;27;20034;-50
2021/06/18 02:29:17;;;;;;;10.30;8.57;;;;;;;23.60;62.11;100476.19;5146520;27;20392;-49
2021/06/18 02:31:44;;;;;;;10.25;7.53;;;;;;;23.68;62.40;100481.06;5123134;27;20030;-52
2021/06/18 02:34:11;;;;;;;11.02;7.93;;;;;;;23.53;64.07;100480.22;5120647;27;20041;-49
2021/06/18 02:36:38;;;;;;;12.77;9.05;;;;;;;23.51;63.28;100482.13;5113597;27;20031;-49
2021/06/18 02:39:06;;;;;;;10.77;8.77;;;;;;;23.43;64.16;100484.41;5111826;27;20044;-48
2021/06/18 02:41:32;;;;;;;12.02;8.48;;;;;;;23.23;65.71;100496.28;5114105;27;20035;-49
2021/06/18 02:43:58;;;;;;;11.02;7.50;;;;;;;23.21;63.66;100498.19;5116375;27;20043;-50
2021/06/18 02:46:43;;;;;;;10.60;8.32;;;;;;;23.50;63.57;100496.41;5111558;27;20059;-51
2021/06/18 02:49:14;;;;;;;8.95;7.95;;;;;;;23.32;63.95;100497.53;5112802;27;20130;-50
2021/06/18 02:51:41;;;;;;;10.18;8.27;;;;;;;23.08;65.26;100495.38;5112954;28;20654;-49
2021/06/18 02:54:32;;;;;;;9.60;7.80;;;;;;;23.24;64.21;100490.84;5112052;27;20039;-49
2021/06/18 02:57:07;;;;;;;9.88;8.13;;;;;;;22.94;66.00;100489.06;5135840;27;20448;-49
2021/06/18 02:59:47;;;;;;;11.00;8.60;;;;;;;22.82;67.43;100497.78;5138466;27;20169;-53
2021/06/18 03:02:17;;;;;;;10.82;8.60;;;;;;;23.11;63.63;100501.38;5133893;27;20058;-51
2021/06/18 03:04:44;;;;;;;11.48;9.18;;;;;;;23.15;65.46;100512.75;5144103;27;20080;-50
2021/06/18 03:07:24;;;;;;;8.90;7.75;;;;;;;23.01;64.54;100510.00;5137288;27;20402;-48
2021/06/18 03:09:53;;;;;;;9.60;8.60;;;;;;;23.31;63.33;100501.16;5136060;27;20030;-54
2021/06/18 03:12:22;;;;;;;9.60;7.90;;;;;;;23.51;62.91;100505.25;5121780;27;20468;-52
2021/06/18 03:14:50;;;;;;;10.20;8.30;;;;;;;23.32;64.03;100508.19;5113810;27;20114;-49
2021/06/18 03:17:18;;;;;;;10.63;8.82;;;;;;;23.49;62.53;100516.03;5111163;27;20039;-48
2021/06/18 03:19:54;;;;;;;14.52;9.35;;;;;;;23.41;63.99;100516.53;5109949;28;20339;-49
2021/06/18 03:22:22;;;;;;;10.32;8.52;;;;;;;23.15;64.59;100522.56;5110648;28;20456;-50
2021/06/18 03:24:51;;;;;;;12.05;9.23;;;;;;;22.78;66.91;100525.56;5093447;28;20394;-49
2021/06/18 03:27:20;;;;;;;11.65;8.80;;;;;;;22.59;67.51;100526.59;5110556;28;20475;-51
2021/06/18 03:29:48;;;;;;;9.73;8.60;;;;;;;22.45;67.99;100519.41;5094314;28;20974;-49
2021/06/18 03:32:15;;;;;;;10.57;8.82;;;;;;;22.43;68.20;100531.97;5109996;28;20483;-49
2021/06/18 03:34:41;;;;;;;10.85;8.70;;;;;;;22.27;69.23;100528.41;5107876;28;20503;-49
2021/06/18 03:37:07;;;;;;;10.88;8.90;;;;;;;22.15;69.32;100526.44;5110902;28;20293;-49
2021/06/18 03:39:33;;;;;;;10.23;9.15;;;;;;;22.19;69.20;100530.63;5109961;28;20027;-49
2021/06/18 03:42:00;;;;;;;11.38;8.63;;;;;;;22.10;69.40;100535.53;5098988;28;20423;-49
2021/06/18 03:44:26;;;;;;;10.43;9.32;;;;;;;22.06;69.97;100544.63;5114235;27;20039;-49
2021/06/18 03:46:53;;;;;;;10.32;9.40;;;;;;;21.96;70.90;100548.75;5131260;27;20031;-49
2021/06/18 03:49:19;;;;;;;10.40;9.40;;;;;;;22.33;68.12;100552.03;5135752;27;20040;-49
2021/06/18 03:51:45;;;;;;;11.93;9.88;;;;;;;22.15;69.59;100545.06;5143791;27;20298;-49
2021/06/18 03:54:11;;;;;;;11.07;9.55;;;;;;;22.24;69.45;100544.56;5123267;27;20034;-50
2021/06/18 03:56:42;;;;;;;10.40;9.30;;;;;;;22.01;71.75;100533.34;5137532;27;20121;-52
2021/06/18 03:59:09;;;;;;;10.65;8.93;;;;;;;22.02;70.17;100543.06;5141595;27;20035;-50
2021/06/18 04:01:38;;;;;;;11.15;9.70;;;;;;;21.90;71.04;100547.28;5103130;27;20042;-49
2021/06/18 04:04:05;;;;;;;11.18;9.35;;;;;;;21.96;72.40;100539.88;5123545;27;20556;-53
2021/06/18 04:06:31;;;;;;;12.45;10.10;;;;;;;21.88;71.72;100548.28;5125007;27;20019;-50
2021/06/18 04:09:02;;;;;;;11.27;10.02;;;;;;;21.66;73.22;100543.25;5119583;27;20100;-52
2021/06/18 04:11:27;;;;;;;13.63;9.82;;;;;;;21.69;73.44;100545.75;5125337;27;20368;-48
2021/06/18 04:13:53;;;;;;;11.48;10.27;;;;;;;21.68;72.24;100542.25;5102231;27;20096;-50
2021/06/18 04:16:19;;;;;;;11.02;10.02;;;;;;;21.70;72.46;100532.38;5121524;27;20034;-49
2021/06/18 04:18:46;;;;;;;10.68;9.68;;;;;;;21.86;71.98;100544.84;5123181;27;20364;-49
2021/06/18 04:21:15;;;;;;;10.88;9.80;;;;;;;21.80;71.79;100539.88;5101543;27;20043;-49
2021/06/18 04:23:41;;;;;;;12.32;10.13;;;;;;;21.85;72.50;100538.69;5123547;27;20413;-49
2021/06/18 04:26:07;;;;;;;10.55;9.45;;;;;;;21.90;70.35;100544.63;5123426;27;20121;-51
2021/06/18 04:28:35;;;;;;;10.93;9.93;;;;;;;21.91;72.82;100540.13;5120748;27;20191;-52
2021/06/18 04:31:01;;;;;;;9.95;8.98;;;;;;;21.92;71.02;100536.53;5125621;27;20111;-49
2021/06/18 04:33:27;;;;;;;12.55;9.95;;;;;;;21.99;71.94;100548.56;5118573;27;20036;-48
2021/06/18 04:35:53;;;;;;;12.48;10.77;;;;;;;21.82;74.19;100543.28;5124188;27;20042;-50
2021/06/18 04:38:18;;;;;;;12.70;10.30;;;;;;;21.96;72.59;100538.09;5092670;27;20039;-51
2021/06/18 04:40:44;;;;;;;13.98;10.55;;;;;;;21.90;72.09;100533.09;5084983;27;20123;-50
2021/06/18 04:43:10;;;;;;;12.98;9.85;;;;;;;22.18;69.38;100537.78;5118818;27;20062;-50
2021/06/18 04:45:35;;;;;;;12.95;11.43;;;;;;;22.09;72.22;100539.13;5114682;27;20364;-51
2021/06/18 04:48:01;;;;;;;11.13;9.85;;;;;;;22.33;68.92;100538.69;5135935;27;20467;-49
2021/06/18 04:50:27;;;;;;;12.55;11.30;;;;;;;22.21;71.71;100542.03;5124503;27;20039;-50
2021/06/18 04:52:53;;;;;;;12.25;11.05;;;;;;;22.40;71.00;100542.78;5136142;27;20312;-49
2021/06/18 04:55:20;;;;;;;10.95;9.90;;;;;;;22.32;70.47;100547.66;5144151;27;20038;-51
2021/06/18 04:57:48;;;;;;;13.45;10.30;;;;;;;22.59;68.16;100552.41;5143477;27;20038;-50
2021/06/18 05:00:15;;;;;;;13.10;10.93;;;;;;;22.74;67.92;100551.50;5136952;27;20387;-50
2021/06/18 05:02:42;;;;;;;11.63;9.95;;;;;;;22.73;68.38;100559.59;5122559;27;20034;-51
2021/06/18 05:05:08;;;;;;;11.68;10.38;;;;;;;22.53;71.06;100553.59;5119410;27;20042;-51
2021/06/18 05:07:34;;;;;;;13.80;10.80;;;;;;;22.53;70.67;100548.28;5140240;27;20388;-49
2021/06/18 05:10:02;;;;;;;11.48;10.38;;;;;;;22.66;69.95;100551.09;5144871;27;20030;-50
2021/06/18 05:12:28;;;;;;;13.35;10.15;;;;;;;22.59;69.34;100550.56;5121508;27;20474;-50
2021/06/18 05:14:54;;;;;;;10.93;9.63;;;;;;;22.68;68.22;100551.88;5138175;27;20038;-49
2021/06/18 05:17:20;;;;;;;12.85;11.60;;;;;;;22.68;70.42;100551.88;5139676;27;20489;-53
2021/06/18 05:19:45;;;;;;;11.95;10.75;;;;;;;23.01;66.88;100555.31;5137474;27;20039;-49
2021/06/18 05:22:11;;;;;;;13.60;11.68;;;;;;;23.02;65.87;100555.22;5150233;27;20026;-49
2021/06/18 05:24:36;;;;;;;14.75;10.55;;;;;;;22.91;67.10;100560.34;5138501;27;20109;-49
2021/06/18 05:27:03;;;;;;;12.95;11.30;;;;;;;22.95;68.84;100561.88;5138316;27;20053;-48
2021/06/18 05:29:28;;;;;;;13.95;11.82;;;;;;;22.88;69.83;100564.03;5111946;27;20386;-51
2021/06/18 05:31:57;;;;;;;13.38;11.93;;;;;;;23.05;67.03;100570.19;5135686;27;20111;-49
2021/06/18 05:34:22;;;;;;;13.02;11.60;;;;;;;23.11;67.57;100565.38;5138010;27;20047;-48
2021/06/18 05:36:48;;;;;;;13.20;11.93;;;;;;;23.17;66.25;100574.00;5138743;27;20034;-49
2021/06/18 05:39:15;;;;;;;13.15;11.77;;;;;;;23.40;66.99;100575.28;5116800;27;20037;-49
2021/06/18 05:41:41;;;;;;;13.38;12.07;;;;;;;23.54;64.90;100571.75;5114877;27;20043;-53
2021/06/18 05:44:08;;;;;;;13.90;11.48;;;;;;;23.47;64.92;100565.97;5112597;27;20118;-51
2021/06/18 05:46:34;;;;;;;15.07;12.35;;;;;;;23.79;65.26;100564.00;5088123;27;20384;-51
2021/06/18 05:48:59;;;;;;;14.30;11.82;;;;;;;23.94;64.30;100562.22;5103947;27;20038;-49
2021/06/18 05:51:25;;;;;;;14.43;9.95;;;;;;;23.74;64.19;100568.75;5134954;27;20405;-48
2021/06/18 05:53:53;;;;;;;13.25;10.73;;;;;;;23.60;64.30;100574.06;5142198;27;20046;-50
2021/06/18 05:56:19;;;;;;;14.95;11.13;;;;;;;23.58;65.08;100578.63;5135101;27;20038;-51
2021/06/18 05:58:45;;;;;;;15.48;11.30;;;;;;;23.76;65.14;100582.88;5141462;27;20435;-50
2021/06/18 06:01:11;;;;;;;12.63;11.02;;;;;;;23.68;65.57;100585.16;5115264;27;20143;-50
2021/06/18 06:03:36;;;;;;;12.57;11.25;;;;;;;23.62;64.16;100586.38;5137122;27;20037;-52
2021/06/18 06:06:02;;;;;;;12.70;10.35;;;;;;;23.72;64.35;100588.50;5084122;27;20038;-50
2021/06/18 06:08:29;;;;;;;14.27;11.07;;;;;;;24.12;64.54;100584.22;5099930;27;20043;-49
2021/06/18 06:10:56;;;;;;;13.77;11.25;;;;;;;24.25;63.90;100589.66;5076823;27;20039;-50
2021/06/18 06:13:21;;;;;;;12.60;10.73;;;;;;;24.08;63.38;100592.53;5114324;27;20043;-49
2021/06/18 06:15:49;;;;;;;13.45;11.25;;;;;;;24.01;63.17;100594.72;5090852;27;20383;-50
2021/06/18 06:18:14;;;;;;;13.68;12.27;;;;;;;23.91;63.28;100602.47;5115596;27;20049;-49
2021/06/18 06:20:41;;;;;;;16.65;11.85;;;;;;;24.23;63.07;100606.72;5116415;27;20050;-50
2021/06/18 06:23:09;;;;;;;16.65;11.93;;;;;;;24.08;63.35;100595.22;5115762;27;20042;-52
2021/06/18 06:25:34;;;;;;;15.45;12.70;;;;;;;24.36;64.06;100610.34;5097700;27;20070;-50
2021/06/18 06:28:00;;;;;;;17.50;13.15;;;;;;;24.30;63.92;100603.56;5117895;27;20122;-52
2021/06/18 06:30:26;;;;;;;16.65;13.88;;;;;;;24.50;63.44;100605.94;5116652;27;20027;-48
2021/06/18 06:32:51;;;;;;;16.00;13.32;;;;;;;24.21;64.85;100611.31;5117689;27;20034;-50
2021/06/18 06:35:17;;;;;;;16.95;14.60;;;;;;;24.17;63.12;100610.63;5120123;27;20295;-51
2021/06/18 06:37:43;;;;;;;16.83;15.23;;;;;;;24.42;62.69;100607.25;5117486;27;20039;-49
2021/06/18 06:40:11;;;;;;;16.55;14.85;;;;;;;24.33;62.77;100607.88;5118316;27;20118;-49
2021/06/18 06:42:36;;;;;;;15.15;13.60;;;;;;;24.35;63.72;100624.63;5116677;27;20167;-48
2021/06/18 06:45:03;;;;;;;16.67;14.10;;;;;;;24.62;62.10;100618.53;5116687;27;20051;-48
2021/06/18 06:47:29;;;;;;;17.38;14.07;;;;;;;24.61;63.20;100616.81;5084492;27;20063;-48
2021/06/18 06:49:54;;;;;;;14.65;12.85;;;;;;;24.34;63.45;100619.41;5100402;27;20039;-48
2021/06/18 06:52:20;;;;;;;15.75;13.63;;;;;;;24.35;62.56;100624.63;5119438;27;20704;-49
2021/06/18 06:54:46;;;;;;;17.45;13.25;;;;;;;24.30;63.44;100624.09;5132404;27;20034;-51
2021/06/18 06:57:12;;;;;;;19.42;15.98;;;;;;;24.61;63.20;100623.00;5095370;27;20039;-48
2021/06/18 06:59:37;;;;;;;18.58;14.52;;;;;;;24.48;62.38;100617.56;5131348;27;20046;-50
2021/06/18 07:02:03;;;;;;;16.60;14.85;;;;;;;24.69;62.69;100627.00;5135566;27;20740;-50
2021/06/18 07:04:29;;;;;;;21.77;15.27;;;;;;;24.52;61.60;100622.72;5132772;27;20042;-50
2021/06/18 07:06:55;;;;;;;15.57;13.55;;;;;;;24.38;64.03;100624.47;5137704;27;20083;-47
2021/06/18 07:09:20;;;;;;;16.15;13.38;;;;;;;24.67;62.13;100621.75;5116642;27;21140;-49
2021/06/18 07:11:46;;;;;;;19.15;15.05;;;;;;;24.79;62.24;100617.44;5106218;27;20039;-50
2021/06/18 07:14:12;;;;;;;18.27;14.50;;;;;;;24.71;61.36;100611.72;5124742;27;20089;-49
2021/06/18 07:16:37;;;;;;;17.73;13.48;;;;;;;24.76;61.24;100612.28;5112766;27;20045;-49
2021/06/18 07:19:03;;;;;;;18.75;14.80;;;;;;;24.86;62.09;100616.06;5116995;27;20048;-48
2021/06/18 07:21:29;;;;;;;17.08;14.48;;;;;;;25.08;61.66;100614.66;5120593;27;20111;-49
2021/06/18 07:23:55;;;;;;;15.02;12.95;;;;;;;24.99;62.42;100602.75;5118350;27;20043;-50
2021/06/18 07:26:21;;;;;;;14.10;11.82;;;;;;;24.88;61.25;100597.25;5119471;27;20062;-49
2021/06/18 07:28:46;;;;;;;21.67;15.25;;;;;;;24.76;61.81;100605.13;5120317;27;20049;-50
2021/06/18 07:31:12;;;;;;;14.20;12.70;;;;;;;24.94;60.93;100602.22;5085442;27;20104;-48
2021/06/18 07:33:38;;;;;;;18.75;14.68;;;;;;;25.29;60.48;100589.13;5121604;27;20062;-52
2021/06/18 07:36:04;;;;;;;17.75;13.93;;;;;;;25.51;59.62;100589.53;5099199;27;20074;-49
2021/06/18 07:38:30;;;;;;;16.27;12.85;;;;;;;25.49;59.42;100582.47;5134173;27;20466;-50
2021/06/18 07:40:55;;;;;;;15.45;12.45;;;;;;;25.22;60.83;100589.66;5122400;27;20114;-49
2021/06/18 07:43:21;;;;;;;14.55;13.00;;;;;;;25.72;60.76;100593.38;5133702;27;20074;-49
2021/06/18 07:45:47;;;;;;;14.30;12.50;;;;;;;25.47;61.07;100605.78;5105981;27;20041;-48
2021/06/18 07:48:13;;;;;;;15.10;12.13;;;;;;;25.37;60.42;100603.84;5121201;27;20442;-50
2021/06/18 07:50:40;;;;;;;16.30;13.38;;;;;;;25.71;59.84;100601.53;5113959;27;20043;-48
2021/06/18 07:53:06;;;;;;;16.77;12.30;;;;;;;25.53;61.26;100604.50;5117713;27;20389;-48
2021/06/18 07:55:32;;;;;;;14.68;13.07;;;;;;;25.60;60.92;100610.28;5118661;27;20058;-49
2021/06/18 07:57:58;;;;;;;15.77;13.38;;;;;;;25.55;59.41;100615.13;5106409;27;20323;-48
2021/06/18 08:00:25;;;;;;;15.40;13.18;;;;;;;25.74;59.99;100620.91;5120970;27;20433;-50
2021/06/18 08:02:51;;;;;;;15.40;13.15;;;;;;;25.95;58.64;100617.69;5116024;27;20308;-51
2021/06/18 08:05:17;;;;;;;15.25;12.38;;;;;;;25.76;59.68;100618.97;5086859;27;20084;-48
2021/06/18 08:07:45;;;;;;;14.05;12.35;;;;;;;26.05;59.17;100621.47;5123883;27;20034;-50
2021/06/18 08:10:13;;;;;;;15.43;11.48;;;;;;;25.82;59.62;100626.59;5099509;27;20258;-50
2021/06/18 08:12:40;;;;;;;15.77;12.00;;;;;;;25.97;59.68;100634.50;5123250;27;20030;-48
2021/06/18 08:15:07;;;;;;;15.20;12.18;;;;;;;25.99;58.32;100632.59;5120127;27;20095;-51
2021/06/18 08:17:34;;;;;;;14.57;11.98;;;;;;;25.86;58.87;100626.38;5115758;27;20499;-49
2021/06/18 08:20:00;;;;;;;12.93;11.43;;;;;;;25.78;59.63;100624.22;5111895;27;20126;-49
2021/06/18 08:22:26;;;;;;;13.52;11.40;;;;;;;25.81;59.26;100619.50;5112076;27;20150;-48
2021/06/18 08:24:51;;;;;;;13.10;10.60;;;;;;;25.82;58.31;100615.00;5108439;27;20034;-49
2021/06/18 08:27:17;;;;;;;14.45;11.38;;;;;;;25.73;58.32;100616.50;5121361;27;20039;-50
2021/06/18 08:29:43;;;;;;;13.82;10.00;;;;;;;25.66;57.84;100615.22;5119003;27;20046;-48
2021/06/18 08:32:08;;;;;;;13.70;10.10;;;;;;;25.59;58.40;100619.31;5120165;27;20116;-49
2021/06/18 08:34:34;;;;;;;12.88;11.05;;;;;;;25.54;58.84;100618.75;5097989;27;20039;-49
2021/06/18 08:37:00;;;;;;;12.13;10.82;;;;;;;25.55;60.05;100613.28;5097645;27;20035;-50
2021/06/18 08:39:25;;;;;;;14.32;10.40;;;;;;;25.94;60.47;100587.38;5093603;27;20054;-49
2021/06/18 08:41:51;;;;;;;15.77;10.30;;;;;;;25.72;59.71;100588.03;5109307;27;20108;-49
2021/06/18 08:44:18;;;;;;;12.30;10.02;;;;;;;25.61;60.34;100590.59;5112282;27;20036;-49
2021/06/18 08:46:44;;;;;;;15.05;10.75;;;;;;;25.58;59.52;100605.03;5109963;27;20031;-48
2021/06/18 08:49:10;;;;;;;13.90;10.75;;;;;;;25.58;58.26;100610.41;5112308;27;20041;-48
2021/06/18 08:51:36;;;;;;;10.98;9.73;;;;;;;25.55;59.39;100599.06;5121507;27;20424;-49
2021/06/18 08:54:02;;;;;;;17.95;11.02;;;;;;;25.60;58.86;100594.22;5122962;27;20366;-48
2021/06/18 08:56:28;;;;;;;14.05;11.00;;;;;;;25.59;59.93;100597.88;5112916;27;20067;-51
2021/06/18 08:58:53;;;;;;;15.80;11.60;;;;;;;25.62;59.25;100595.00;5112585;27;20152;-47
2021/06/18 09:01:19;;;;;;;13.10;10.77;;;;;;;25.65;59.91;100589.41;5109808;27;20036;-52
2021/06/18 09:03:47;;;;;;;14.30;10.70;;;;;;;25.73;60.67;100587.06;5109821;27;20106;-49
2021/06/18 09:06:19;;;;;;;13.13;10.50;;;;;;;25.75;59.80;100577.09;5119136;27;20415;-50
2021/06/18 09:08:45;;;;;;;14.35;9.73;;;;;;;25.78;60.09;100584.94;5119253;27;20419;-49
2021/06/18 09:11:11;;;;;;;13.15;11.07;;;;;;;25.92;59.67;100588.44;5113511;27;20455;-49
2021/06/18 09:13:40;;;;;;;13.43;11.68;;;;;;;25.95;59.81;100585.56;5121801;27;20125;-49
2021/06/18 09:16:05;;;;;;;13.77;11.02;;;;;;;25.92;59.32;100577.72;5138712;27;20084;-50
2021/06/18 09:18:34;;;;;;;12.05;10.82;;;;;;;25.92;59.31;100585.75;5141485;27;20030;-48
2021/06/18 09:21:02;;;;;;;13.57;11.25;;;;;;;26.24;59.00;100588.00;5136925;27;20047;-49
2021/06/18 09:23:34;;;;;;;14.45;11.63;;;;;;;26.11;58.51;100588.03;5137896;27;20076;-52
2021/06/18 09:26:21;;;;;;;16.95;11.27;;;;;;;26.56;56.28;100596.38;5119695;27;20232;-50
2021/06/18 09:29:02;;;;;;;15.33;10.97;;;;;;;26.43;57.17;100592.88;5141942;27;20070;-48
2021/06/18 09:31:31;;;;;;;11.70;10.48;;;;;;;26.25;58.68;100600.44;5138004;27;20715;-48
2021/06/18 09:33:57;;;;;;;13.23;11.82;;;;;;;26.27;60.57;100599.34;5119337;27;20726;-48
2021/06/18 09:36:24;;;;;;;15.15;10.98;;;;;;;26.79;56.75;100594.72;5118278;27;20035;-48
2021/06/18 09:38:56;;;;;;;11.52;10.38;;;;;;;26.52;58.37;100587.69;5121088;27;20034;-48
2021/06/18 09:41:38;;;;;;;14.75;10.65;;;;;;;26.84;56.87;100589.84;5124954;27;20066;-49
2021/06/18 09:44:10;;;;;;;11.18;9.63;;;;;;;26.97;56.07;100583.56;5123274;27;20047;-48
2021/06/18 09:46:48;;;;;;;12.80;10.10;;;;;;;26.78;56.14;100587.66;5120774;27;20043;-48
2021/06/18 09:49:36;;;;;;;13.30;10.65;;;;;;;27.41;52.71;100589.25;5098163;27;20487;-48
2021/06/18 09:52:16;;;;;;;15.02;11.30;;;;;;;27.35;53.39;100588.75;5120057;27;20126;-48
2021/06/18 09:54:49;;;;;;;15.30;10.27;;;;;;;27.10;54.46;100586.22;5116434;27;20074;-49
2021/06/18 09:57:17;;;;;;;15.93;9.98;;;;;;;27.43;53.31;100584.59;5118934;27;20057;-50
2021/06/18 10:00:03;;;;;;;9.90;7.75;;;;;;;27.22;52.64;100577.22;5118272;27;20050;-48
2021/06/18 10:02:43;;;;;;;10.80;8.38;;;;;;;27.23;52.16;100578.06;5120499;27;20054;-48
2021/06/18 10:05:14;;;;;;;10.25;7.75;;;;;;;27.01;53.51;100569.84;5123553;27;20101;-48
2021/06/18 10:07:41;;;;;;;11.80;8.30;;;;;;;27.25;52.11;100579.66;5117324;27;20031;-48
2021/06/18 10:10:10;;;;;;;9.18;7.18;;;;;;;27.29;50.50;100582.97;5113585;27;20062;-50
2021/06/18 10:12:37;;;;;;;11.80;7.68;;;;;;;27.06;51.93;100580.22;5133239;27;20668;-51
2021/06/18 10:15:06;;;;;;;11.20;7.60;;;;;;;27.29;51.87;100580.28;5125849;27;20303;-48
2021/06/18 10:17:45;;;;;;;15.32;7.15;;;;;;;27.64;49.78;100574.91;5122863;27;20493;-52
2021/06/18 10:20:13;;;;;;;9.50;7.00;;;;;;;28.02;50.96;100570.19;5121234;27;20039;-49
2021/06/18 10:23:24;;;;;;;12.25;8.02;;;;;;;28.50;47.70;100572.56;5125620;27;20054;-50
2021/06/18 10:25:58;;;;;;;9.73;7.03;;;;;;;28.49;49.60;100581.59;5016530;28;20041;-49
2021/06/18 10:28:30;;;;;;;13.63;7.20;;;;;;;28.40;45.15;100570.75;5016928;28;20070;-51
2021/06/18 10:30:58;;;;;;;9.80;6.32;;;;;;;28.63;46.45;100566.19;5080492;27;20051;-50
2021/06/18 10:33:29;;;;;;;8.98;6.38;;;;;;;28.40;46.49;100566.25;5127094;27;20031;-53
2021/06/18 10:36:19;;;;;;;8.55;6.53;;;;;;;28.71;46.67;100553.81;5121181;27;20187;-52
2021/06/18 10:38:50;;;;;;;8.55;5.97;;;;;;;28.80;44.67;100562.09;5087028;27;20035;-49
2021/06/18 10:41:16;;;;;;;10.02;5.95;;;;;;;29.06;43.29;100551.84;5116756;27;20038;-51
2021/06/18 10:43:50;;;;;;;10.15;5.53;;;;;;;28.97;44.65;100563.41;5118014;27;20042;-52
2021/06/18 10:46:37;;;;;;;10.68;5.80;;;;;;;29.07;43.68;100558.94;5118496;27;20161;-49
2021/06/18 10:49:08;;;;;;;13.60;5.30;;;;;;;28.95;44.86;100559.97;5122064;27;20165;-49
2021/06/18 10:51:43;;;;;;;7.13;4.68;;;;;;;29.17;43.08;100553.63;5120487;27;20034;-51
2021/06/18 10:54:26;;;;;;;9.93;5.57;;;;;;;29.31;43.30;100560.53;5137541;27;20038;-51
2021/06/18 10:56:59;;;;;;;11.82;6.03;;;;;;;28.96;45.52;100551.75;5142396;27;20041;-51
2021/06/18 10:59:30;;;;;;;8.63;5.10;;;;;;;29.19;42.17;100557.06;5114458;27;20038;-49
2021/06/18 11:01:58;;;;;;;9.20;4.88;;;;;;;28.99;44.90;100551.53;5138150;27;20042;-50
2021/06/18 11:04:42;;;;;;;9.82;5.40;;;;;;;29.15;42.54;100553.75;5137473;27;20410;-50
2021/06/18 11:07:30;;;;;;;8.10;5.25;;;;;;;29.04;42.55;100548.44;5099497;27;20039;-51
2021/06/18 11:10:06;;;;;;;11.95;5.72;;;;;;;29.01;43.04;100554.94;5139549;27;20042;-52
2021/06/18 11:12:37;;;;;;;12.02;4.95;;;;;;;28.83;41.60;100549.25;5143209;27;20470;-52
2021/06/18 11:15:24;;;;;;;10.52;5.00;;;;;;;29.19;40.08;100547.13;5144943;27;20115;-50
2021/06/18 11:17:59;;;;;;;13.13;5.75;;;;;;;29.28;41.93;100539.28;5120192;27;20034;-53
2021/06/18 11:20:46;;;;;;;11.63;6.22;;;;;;;29.75;40.30;100536.97;5132645;27;20077;-53
2021/06/18 11:23:17;;;;;;;12.18;6.10;;;;;;;29.49;42.55;100537.44;5134568;27;20053;-52